sensor_id;sensor_type;location;lat;lon;timestamp;pressure;altitude;pressure_sealevel;temperature;humidity
79663;BME280;69130;48.724;8.982;2023-05-07T00:00:09;96394.66;;;11.24;89.13
79663;BME280;69130;48.724;8.982;2023-05-07T00:02:36;96404.41;;;11.23;89.62
79663;BME280;69130;48.724;8.982;2023-05-07T00:05:02;96392.94;;;11.23;88.63
79663;BME280;69130;48.724;8.982;2023-05-07T00:07:28;96405.88;;;11.27;88.49
79663;BME280;69130;48.724;8.982;2023-05-07T00:09:54;96401.09;;;11.32;89.13
79663;BME280;69130;48.724;8.982;2023-05-07T00:12:19;96398.78;;;11.28;89.26
79663;BME280;69130;48.724;8.982;2023-05-07T00:14:45;96398.78;;;11.28;90.11
79663;BME280;69130;48.724;8.982;2023-05-07T00:17:10;96401.75;;;11.23;89.48
79663;BME280;69130;48.724;8.982;2023-05-07T00:19:36;96386.91;;;11.21;89.54
79663;BME280;69130;48.724;8.982;2023-05-07T00:22:02;96393.31;;;11.18;89.82
79663;BME280;69130;48.724;8.982;2023-05-07T00:24:27;96394.13;;;11.19;89.87
79663;BME280;69130;48.724;8.982;2023-05-07T00:26:52;96390.41;;;11.21;89.92
79663;BME280;69130;48.724;8.982;2023-05-07T00:29:18;96394.97;;;11.19;89.26
79663;BME280;69130;48.724;8.982;2023-05-07T00:31:43;96383.66;;;11.17;88.73
79663;BME280;69130;48.724;8.982;2023-05-07T00:34:08;96395.28;;;11.15;89.10
79663;BME280;69130;48.724;8.982;2023-05-07T00:36:34;96393.63;;;11.14;89.28
79663;BME280;69130;48.724;8.982;2023-05-07T00:39:00;96383.75;;;11.16;90.13
79663;BME280;69130;48.724;8.982;2023-05-07T00:41:26;96382.72;;;11.18;90.73
79663;BME280;69130;48.724;8.982;2023-05-07T00:43:52;96377.50;;;11.17;89.76
79663;BME280;69130;48.724;8.982;2023-05-07T00:46:20;96374.22;;;11.13;89.44
79663;BME280;69130;48.724;8.982;2023-05-07T00:48:46;96379.66;;;11.12;89.65
79663;BME280;69130;48.724;8.982;2023-05-07T00:51:11;96373.59;;;11.10;89.57
79663;BME280;69130;48.724;8.982;2023-05-07T00:53:37;96373.00;;;11.06;90.57
79663;BME280;69130;48.724;8.982;2023-05-07T00:56:03;96374.03;;;11.04;89.67
79663;BME280;69130;48.724;8.982;2023-05-07T00:58:29;96375.00;;;11.03;90.07
79663;BME280;69130;48.724;8.982;2023-05-07T01:00:55;96372.13;;;11.06;91.13
79663;BME280;69130;48.724;8.982;2023-05-07T01:03:20;96376.19;;;10.99;90.62
79663;BME280;69130;48.724;8.982;2023-05-07T01:05:47;96375.53;;;10.95;89.65
79663;BME280;69130;48.724;8.982;2023-05-07T01:08:15;96373.84;;;10.94;90.09
79663;BME280;69130;48.724;8.982;2023-05-07T01:10:41;96373.75;;;10.96;90.76
79663;BME280;69130;48.724;8.982;2023-05-07T01:13:09;96372.56;;;11.00;91.08
79663;BME280;69130;48.724;8.982;2023-05-07T01:15:35;96372.56;;;11.00;91.03
79663;BME280;69130;48.724;8.982;2023-05-07T01:18:01;96363.03;;;10.97;90.58
79663;BME280;69130;48.724;8.982;2023-05-07T01:20:27;96366.78;;;10.95;89.67
79663;BME280;69130;48.724;8.982;2023-05-07T01:22:53;96366.66;;;10.96;90.52
79663;BME280;69130;48.724;8.982;2023-05-07T01:25:18;96371.94;;;10.96;90.51
79663;BME280;69130;48.724;8.982;2023-05-07T01:27:44;96367.72;;;10.94;89.91
79663;BME280;69130;48.724;8.982;2023-05-07T01:30:10;96366.03;;;10.93;90.89
79663;BME280;69130;48.724;8.982;2023-05-07T01:33:06;96371.03;;;10.85;90.20
79663;BME280;69130;48.724;8.982;2023-05-07T01:35:39;96371.97;;;10.84;90.31
79663;BME280;69130;48.724;8.982;2023-05-07T01:38:05;96372.81;;;10.84;91.02
79663;BME280;69130;48.724;8.982;2023-05-07T01:40:32;96370.16;;;10.84;92.03
79663;BME280;69130;48.724;8.982;2023-05-07T01:42:59;96374.59;;;10.84;91.24
79663;BME280;69130;48.724;8.982;2023-05-07T01:45:25;96368.06;;;10.77;90.92
79663;BME280;69130;48.724;8.982;2023-05-07T01:47:51;96368.25;;;10.74;90.43
79663;BME280;69130;48.724;8.982;2023-05-07T01:50:19;96372.81;;;10.72;91.53
79663;BME280;69130;48.724;8.982;2023-05-07T01:52:44;96372.19;;;10.68;91.54
79663;BME280;69130;48.724;8.982;2023-05-07T01:55:10;96367.75;;;10.69;92.20
79663;BME280;69130;48.724;8.982;2023-05-07T01:57:36;96371.47;;;10.66;91.71
79663;BME280;69130;48.724;8.982;2023-05-07T02:00:01;96370.59;;;10.66;91.77
79663;BME280;69130;48.724;8.982;2023-05-07T02:02:31;96367.22;;;10.64;91.50
79663;BME280;69130;48.724;8.982;2023-05-07T02:04:56;96375.38;;;10.61;91.36
79663;BME280;69130;48.724;8.982;2023-05-07T02:07:22;96370.94;;;10.61;91.35
79663;BME280;69130;48.724;8.982;2023-05-07T02:09:47;96369.22;;;10.60;91.50
79663;BME280;69130;48.724;8.982;2023-05-07T02:12:12;96374.34;;;10.63;92.27
79663;BME280;69130;48.724;8.982;2023-05-07T02:14:38;96373.59;;;10.61;91.80
79663;BME280;69130;48.724;8.982;2023-05-07T02:17:03;96368.91;;;10.52;91.42
79663;BME280;69130;48.724;8.982;2023-05-07T02:19:28;96368.84;;;10.53;92.11
79663;BME280;69130;48.724;8.982;2023-05-07T02:21:54;96370.63;;;10.53;91.65
79663;BME280;69130;48.724;8.982;2023-05-07T02:24:19;96377.94;;;10.49;91.73
79663;BME280;69130;48.724;8.982;2023-05-07T02:26:45;96376.53;;;10.44;92.15
79663;BME280;69130;48.724;8.982;2023-05-07T02:29:10;96376.75;;;10.41;92.17
79663;BME280;69130;48.724;8.982;2023-05-07T02:31:35;96370.72;;;10.39;91.78
79663;BME280;69130;48.724;8.982;2023-05-07T02:34:01;96376.97;;;10.38;92.51
79663;BME280;69130;48.724;8.982;2023-05-07T02:36:26;96377.06;;;10.36;92.07
79663;BME280;69130;48.724;8.982;2023-05-07T02:38:52;96371.25;;;10.31;92.20
79663;BME280;69130;48.724;8.982;2023-05-07T02:41:18;96376.75;;;10.28;92.68
79663;BME280;69130;48.724;8.982;2023-05-07T02:43:43;96369.16;;;10.24;92.34
79663;BME280;69130;48.724;8.982;2023-05-07T02:46:09;96378.31;;;10.18;92.53
79663;BME280;69130;48.724;8.982;2023-05-07T02:48:34;96375.03;;;10.15;92.55
79663;BME280;69130;48.724;8.982;2023-05-07T02:51:01;96374.53;;;10.10;92.59
79663;BME280;69130;48.724;8.982;2023-05-07T02:53:26;96375.53;;;10.07;93.19
79663;BME280;69130;48.724;8.982;2023-05-07T02:55:53;96370.44;;;10.04;92.92
79663;BME280;69130;48.724;8.982;2023-05-07T02:58:18;96366.41;;;9.99;93.38
79663;BME280;69130;48.724;8.982;2023-05-07T03:00:43;96363.88;;;9.97;94.04
79663;BME280;69130;48.724;8.982;2023-05-07T03:03:09;96362.28;;;9.95;94.16
79663;BME280;69130;48.724;8.982;2023-05-07T03:05:36;96350.22;;;9.91;93.75
79663;BME280;69130;48.724;8.982;2023-05-07T03:08:01;96349.69;;;9.86;93.83
79663;BME280;69130;48.724;8.982;2023-05-07T03:10:26;96358.56;;;9.85;93.63
79663;BME280;69130;48.724;8.982;2023-05-07T03:12:52;96345.69;;;9.80;93.88
79663;BME280;69130;48.724;8.982;2023-05-07T03:15:17;96348.84;;;9.73;93.58
79663;BME280;69130;48.724;8.982;2023-05-07T03:17:42;96348.72;;;9.74;93.70
79663;BME280;69130;48.724;8.982;2023-05-07T03:20:08;96358.56;;;9.72;93.96
79663;BME280;69130;48.724;8.982;2023-05-07T03:22:34;96355.28;;;9.68;93.74
79663;BME280;69130;48.724;8.982;2023-05-07T03:25:00;96352.28;;;9.60;93.84
79663;BME280;69130;48.724;8.982;2023-05-07T03:27:25;96353.84;;;9.50;93.33
79663;BME280;69130;48.724;8.982;2023-05-07T03:29:50;96351.59;;;9.44;93.82
79663;BME280;69130;48.724;8.982;2023-05-07T03:32:16;96354.63;;;9.38;93.61
79663;BME280;69130;48.724;8.982;2023-05-07T03:34:41;96353.78;;;9.38;94.04
79663;BME280;69130;48.724;8.982;2023-05-07T03:37:06;96352.75;;;9.40;93.96
79663;BME280;69130;48.724;8.982;2023-05-07T03:39:32;96351.16;;;9.38;94.18
79663;BME280;69130;48.724;8.982;2023-05-07T03:41:57;96353.91;;;9.36;93.75
79663;BME280;69130;48.724;8.982;2023-05-07T03:44:23;96357.56;;;9.34;93.98
79663;BME280;69130;48.724;8.982;2023-05-07T03:46:48;96355.03;;;9.32;94.41
79663;BME280;69130;48.724;8.982;2023-05-07T03:49:14;96352.94;;;9.37;94.79
79663;BME280;69130;48.724;8.982;2023-05-07T03:51:39;96357.38;;;9.37;94.48
79663;BME280;69130;48.724;8.982;2023-05-07T03:54:05;96353.03;;;9.36;94.83
79663;BME280;69130;48.724;8.982;2023-05-07T03:56:30;96359.06;;;9.38;94.35
79663;BME280;69130;48.724;8.982;2023-05-07T03:58:56;96356.31;;;9.39;94.67
79663;BME280;69130;48.724;8.982;2023-05-07T04:01:21;96351.78;;;9.41;94.44
79663;BME280;69130;48.724;8.982;2023-05-07T04:03:47;96355.69;;;9.36;95.27
79663;BME280;69130;48.724;8.982;2023-05-07T04:06:12;96354.00;;;9.35;95.27
79663;BME280;69130;48.724;8.982;2023-05-07T04:08:37;96355.16;;;9.31;95.04
79663;BME280;69130;48.724;8.982;2023-05-07T04:11:03;96359.47;;;9.32;95.29
79663;BME280;69130;48.724;8.982;2023-05-07T04:13:29;96362.00;;;9.33;95.48
79663;BME280;69130;48.724;8.982;2023-05-07T04:15:55;96370.03;;;9.32;95.00
79663;BME280;69130;48.724;8.982;2023-05-07T04:18:20;96374.28;;;9.34;95.18
79663;BME280;69130;48.724;8.982;2023-05-07T04:20:47;96376.16;;;9.32;95.14
79663;BME280;69130;48.724;8.982;2023-05-07T04:23:12;96372.56;;;9.33;95.46
79663;BME280;69130;48.724;8.982;2023-05-07T04:25:38;96375.19;;;9.33;94.67
79663;BME280;69130;48.724;8.982;2023-05-07T04:28:03;96372.56;;;9.33;94.82
79663;BME280;69130;48.724;8.982;2023-05-07T04:30:29;96375.88;;;9.37;95.43
79663;BME280;69130;48.724;8.982;2023-05-07T04:32:54;96372.91;;;9.41;95.05
79663;BME280;69130;48.724;8.982;2023-05-07T04:35:19;96369.22;;;9.44;95.16
79663;BME280;69130;48.724;8.982;2023-05-07T04:37:45;96373.59;;;9.45;94.90
79663;BME280;69130;48.724;8.982;2023-05-07T04:40:10;96371.69;;;9.47;95.07
79663;BME280;69130;48.724;8.982;2023-05-07T04:42:36;96375.38;;;9.44;94.31
79663;BME280;69130;48.724;8.982;2023-05-07T04:45:02;96367.56;;;9.43;94.51
79663;BME280;69130;48.724;8.982;2023-05-07T04:47:27;96368.38;;;9.43;94.53
79663;BME280;69130;48.724;8.982;2023-05-07T04:49:53;96366.59;;;9.44;94.20
79663;BME280;69130;48.724;8.982;2023-05-07T04:52:18;96373.47;;;9.46;94.21
79663;BME280;69130;48.724;8.982;2023-05-07T04:54:43;96373.19;;;9.51;94.09
79663;BME280;69130;48.724;8.982;2023-05-07T04:57:09;96377.34;;;9.67;94.26
79663;BME280;69130;48.724;8.982;2023-05-07T04:59:34;96388.56;;;9.71;93.91
79663;BME280;69130;48.724;8.982;2023-05-07T05:01:59;96388.91;;;9.79;93.87
79663;BME280;69130;48.724;8.982;2023-05-07T05:04:25;96396.13;;;9.90;93.47
79663;BME280;69130;48.724;8.982;2023-05-07T05:06:50;96398.81;;;10.02;92.79
79663;BME280;69130;48.724;8.982;2023-05-07T05:09:16;96390.06;;;10.14;92.72
79663;BME280;69130;48.724;8.982;2023-05-07T05:11:41;96387.44;;;10.27;92.09
79663;BME280;69130;48.724;8.982;2023-05-07T05:14:07;96394.13;;;10.45;92.24
79663;BME280;69130;48.724;8.982;2023-05-07T05:16:32;96406.16;;;10.62;91.59
79663;BME280;69130;48.724;8.982;2023-05-07T05:18:58;96414.22;;;10.73;90.62
79663;BME280;69130;48.724;8.982;2023-05-07T05:21:23;96399.78;;;10.89;91.05
79663;BME280;69130;48.724;8.982;2023-05-07T05:23:48;96395.03;;;10.94;90.05
79663;BME280;69130;48.724;8.982;2023-05-07T05:26:14;96406.31;;;11.09;89.78
79663;BME280;69130;48.724;8.982;2023-05-07T05:28:42;96397.94;;;11.27;90.43
79663;BME280;69130;48.724;8.982;2023-05-07T05:31:08;96415.94;;;11.59;89.67
79663;BME280;69130;48.724;8.982;2023-05-07T05:33:33;96409.72;;;11.83;88.47
79663;BME280;69130;48.724;8.982;2023-05-07T05:35:59;96425.78;;;12.16;86.95
79663;BME280;69130;48.724;8.982;2023-05-07T05:38:24;96419.63;;;12.51;85.94
79663;BME280;69130;48.724;8.982;2023-05-07T05:40:50;96412.13;;;12.56;83.79
79663;BME280;69130;48.724;8.982;2023-05-07T05:43:16;96404.69;;;12.61;84.57
79663;BME280;69130;48.724;8.982;2023-05-07T05:45:41;96411.66;;;12.62;83.07
79663;BME280;69130;48.724;8.982;2023-05-07T05:48:06;96415.97;;;12.41;84.46
79663;BME280;69130;48.724;8.982;2023-05-07T05:50:33;96422.22;;;12.40;84.10
79663;BME280;69130;48.724;8.982;2023-05-07T05:53:00;96418.97;;;12.47;85.28
79663;BME280;69130;48.724;8.982;2023-05-07T05:55:26;96412.41;;;12.75;84.24
79663;BME280;69130;48.724;8.982;2023-05-07T05:57:52;96419.53;;;12.96;84.44
79663;BME280;69130;48.724;8.982;2023-05-07T06:00:17;96422.59;;;13.25;83.69
79663;BME280;69130;48.724;8.982;2023-05-07T06:02:43;96422.69;;;13.46;83.11
79663;BME280;69130;48.724;8.982;2023-05-07T06:05:08;96423.69;;;13.45;82.38
79663;BME280;69130;48.724;8.982;2023-05-07T06:07:34;96413.09;;;13.65;82.58
79663;BME280;69130;48.724;8.982;2023-05-07T06:10:00;96421.25;;;13.95;82.04
79663;BME280;69130;48.724;8.982;2023-05-07T06:12:26;96418.69;;;14.05;80.09
79663;BME280;69130;48.724;8.982;2023-05-07T06:14:51;96416.03;;;14.37;79.08
79663;BME280;69130;48.724;8.982;2023-05-07T06:17:17;96413.06;;;14.51;77.72
79663;BME280;69130;48.724;8.982;2023-05-07T06:19:43;96409.34;;;14.63;76.52
79663;BME280;69130;48.724;8.982;2023-05-07T06:22:08;96412.41;;;14.79;76.96
79663;BME280;69130;48.724;8.982;2023-05-07T06:24:33;96419.94;;;14.74;75.77
79663;BME280;69130;48.724;8.982;2023-05-07T06:26:59;96415.13;;;14.88;76.06
79663;BME280;69130;48.724;8.982;2023-05-07T06:29:25;96418.81;;;14.97;76.05
79663;BME280;69130;48.724;8.982;2023-05-07T06:31:55;96416.97;;;14.98;75.73
79663;BME280;69130;48.724;8.982;2023-05-07T06:34:20;96417.28;;;15.25;74.01
79663;BME280;69130;48.724;8.982;2023-05-07T06:36:46;96418.84;;;15.77;72.97
79663;BME280;69130;48.724;8.982;2023-05-07T06:39:11;96413.88;;;16.21;72.84
79663;BME280;69130;48.724;8.982;2023-05-07T06:41:37;96419.63;;;16.74;68.08
79663;BME280;69130;48.724;8.982;2023-05-07T06:44:02;96414.25;;;16.93;68.12
79663;BME280;69130;48.724;8.982;2023-05-07T06:46:28;96423.22;;;17.58;65.58
79663;BME280;69130;48.724;8.982;2023-05-07T06:48:54;96431.28;;;18.20;63.95
79663;BME280;69130;48.724;8.982;2023-05-07T06:51:20;96426.75;;;18.91;61.18
79663;BME280;69130;48.724;8.982;2023-05-07T06:53:45;96411.44;;;19.60;59.47
79663;BME280;69130;48.724;8.982;2023-05-07T06:56:10;96412.06;;;20.46;55.39
79663;BME280;69130;48.724;8.982;2023-05-07T06:58:37;96408.53;;;20.53;55.84
79663;BME280;69130;48.724;8.982;2023-05-07T07:01:02;96418.28;;;21.27;54.61
79663;BME280;69130;48.724;8.982;2023-05-07T07:03:27;96409.53;;;21.80;50.62
79663;BME280;69130;48.724;8.982;2023-05-07T07:05:54;96421.34;;;21.70;51.11
79663;BME280;69130;48.724;8.982;2023-05-07T07:08:19;96434.84;;;22.17;50.64
79663;BME280;69130;48.724;8.982;2023-05-07T07:10:46;96433.81;;;22.18;49.37
79663;BME280;69130;48.724;8.982;2023-05-07T07:13:12;96425.03;;;23.37;46.61
79663;BME280;69130;48.724;8.982;2023-05-07T07:15:37;96424.13;;;23.60;48.24
79663;BME280;69130;48.724;8.982;2023-05-07T07:18:03;96420.81;;;25.15;43.06
79663;BME280;69130;48.724;8.982;2023-05-07T07:20:28;96416.09;;;25.02;42.56
79663;BME280;69130;48.724;8.982;2023-05-07T07:22:53;96420.00;;;25.42;41.73
79663;BME280;69130;48.724;8.982;2023-05-07T07:25:19;96420.13;;;25.34;42.39
79663;BME280;69130;48.724;8.982;2023-05-07T07:27:44;96421.97;;;24.49;43.38
79663;BME280;69130;48.724;8.982;2023-05-07T07:30:10;96428.25;;;24.71;43.53
79663;BME280;69130;48.724;8.982;2023-05-07T07:32:35;96435.19;;;24.23;44.31
79663;BME280;69130;48.724;8.982;2023-05-07T07:35:00;96422.06;;;23.76;45.47
79663;BME280;69130;48.724;8.982;2023-05-07T07:37:26;96427.06;;;25.16;42.80
79663;BME280;69130;48.724;8.982;2023-05-07T07:39:52;96424.41;;;25.22;42.62
79663;BME280;69130;48.724;8.982;2023-05-07T07:42:17;96427.50;;;24.98;43.15
79663;BME280;69130;48.724;8.982;2023-05-07T07:44:43;96428.81;;;23.66;44.88
79663;BME280;69130;48.724;8.982;2023-05-07T07:47:08;96431.13;;;22.49;49.71
79663;BME280;69130;48.724;8.982;2023-05-07T07:49:34;96430.00;;;22.89;46.89
79663;BME280;69130;48.724;8.982;2023-05-07T07:52:00;96433.09;;;22.63;46.17
79663;BME280;69130;48.724;8.982;2023-05-07T07:54:26;96428.91;;;22.98;47.10
79663;BME280;69130;48.724;8.982;2023-05-07T07:56:51;96439.84;;;22.82;47.46
79663;BME280;69130;48.724;8.982;2023-05-07T07:59:17;96440.97;;;22.34;47.98
79663;BME280;69130;48.724;8.982;2023-05-07T08:01:44;96432.53;;;24.08;45.19
79663;BME280;69130;48.724;8.982;2023-05-07T08:04:10;96434.06;;;25.86;40.05
79663;BME280;69130;48.724;8.982;2023-05-07T08:06:36;96442.97;;;27.68;38.89
79663;BME280;69130;48.724;8.982;2023-05-07T08:09:01;96436.28;;;27.57;36.13
79663;BME280;69130;48.724;8.982;2023-05-07T08:11:27;96447.19;;;28.92;36.32
79663;BME280;69130;48.724;8.982;2023-05-07T08:13:54;96447.53;;;29.89;31.87
79663;BME280;69130;48.724;8.982;2023-05-07T08:16:19;96450.38;;;28.82;32.68
79663;BME280;69130;48.724;8.982;2023-05-07T08:18:45;96446.69;;;27.87;35.50
79663;BME280;69130;48.724;8.982;2023-05-07T08:21:10;96441.28;;;27.67;37.74
79663;BME280;69130;48.724;8.982;2023-05-07T08:23:36;96447.78;;;27.59;37.90
79663;BME280;69130;48.724;8.982;2023-05-07T08:26:01;96443.19;;;27.40;37.94
79663;BME280;69130;48.724;8.982;2023-05-07T08:28:26;96447.75;;;27.20;37.07
79663;BME280;69130;48.724;8.982;2023-05-07T08:30:52;96447.28;;;27.04;37.15
79663;BME280;69130;48.724;8.982;2023-05-07T08:33:17;96442.75;;;28.53;35.28
79663;BME280;69130;48.724;8.982;2023-05-07T08:35:43;96446.69;;;29.88;32.17
79663;BME280;69130;48.724;8.982;2023-05-07T08:38:08;96454.06;;;30.78;30.20
79663;BME280;69130;48.724;8.982;2023-05-07T08:40:37;96441.47;;;29.87;30.43
79663;BME280;69130;48.724;8.982;2023-05-07T08:43:05;96443.56;;;29.04;32.97
79663;BME280;69130;48.724;8.982;2023-05-07T08:45:33;96441.31;;;30.00;31.39
79663;BME280;69130;48.724;8.982;2023-05-07T08:48:00;96438.56;;;31.61;29.03
79663;BME280;69130;48.724;8.982;2023-05-07T08:50:26;96446.97;;;32.64;28.07
79663;BME280;69130;48.724;8.982;2023-05-07T08:52:52;96449.41;;;31.68;29.38
79663;BME280;69130;48.724;8.982;2023-05-07T08:55:18;96454.88;;;32.37;28.45
79663;BME280;69130;48.724;8.982;2023-05-07T08:57:44;96447.16;;;32.86;27.96
79663;BME280;69130;48.724;8.982;2023-05-07T09:00:10;96452.69;;;33.14;28.56
79663;BME280;69130;48.724;8.982;2023-05-07T09:02:36;96456.19;;;32.58;26.92
79663;BME280;69130;48.724;8.982;2023-05-07T09:05:02;96447.09;;;33.09;26.84
79663;BME280;69130;48.724;8.982;2023-05-07T09:07:28;96447.78;;;33.94;26.37
79663;BME280;69130;48.724;8.982;2023-05-07T09:09:53;96447.97;;;33.54;27.21
79663;BME280;69130;48.724;8.982;2023-05-07T09:12:21;96445.28;;;33.92;25.70
79663;BME280;69130;48.724;8.982;2023-05-07T09:14:46;96440.81;;;33.70;26.23
79663;BME280;69130;48.724;8.982;2023-05-07T09:17:12;96448.03;;;34.64;25.04
79663;BME280;69130;48.724;8.982;2023-05-07T09:19:37;96443.81;;;34.01;25.37
79663;BME280;69130;48.724;8.982;2023-05-07T09:22:05;96437.81;;;33.71;27.30
79663;BME280;69130;48.724;8.982;2023-05-07T09:24:32;96448.91;;;34.69;26.09
79663;BME280;69130;48.724;8.982;2023-05-07T09:27:03;96443.09;;;34.27;25.03
79663;BME280;69130;48.724;8.982;2023-05-07T09:29:29;96445.78;;;34.22;25.70
79663;BME280;69130;48.724;8.982;2023-05-07T09:32:03;96435.59;;;34.83;26.12
79663;BME280;69130;48.724;8.982;2023-05-07T09:34:30;96442.13;;;33.67;25.27
79663;BME280;69130;48.724;8.982;2023-05-07T09:36:56;96441.25;;;33.33;26.19
79663;BME280;69130;48.724;8.982;2023-05-07T09:39:25;96438.44;;;33.00;28.12
79663;BME280;69130;48.724;8.982;2023-05-07T09:41:51;96446.88;;;34.05;26.08
79663;BME280;69130;48.724;8.982;2023-05-07T09:44:19;96439.22;;;34.23;24.83
79663;BME280;69130;48.724;8.982;2023-05-07T09:46:47;96441.22;;;34.93;26.65
79663;BME280;69130;48.724;8.982;2023-05-07T09:49:20;96439.56;;;34.92;25.97
79663;BME280;69130;48.724;8.982;2023-05-07T09:51:50;96440.88;;;35.91;23.93
79663;BME280;69130;48.724;8.982;2023-05-07T09:54:16;96448.25;;;35.00;23.37
79663;BME280;69130;48.724;8.982;2023-05-07T09:56:43;96442.03;;;35.63;23.39
79663;BME280;69130;48.724;8.982;2023-05-07T09:59:11;96438.88;;;34.20;25.79
79663;BME280;69130;48.724;8.982;2023-05-07T10:01:38;96444.75;;;34.88;25.11
79663;BME280;69130;48.724;8.982;2023-05-07T10:04:05;96427.78;;;35.18;24.48
79663;BME280;69130;48.724;8.982;2023-05-07T10:06:31;96423.16;;;34.54;25.71
79663;BME280;69130;48.724;8.982;2023-05-07T10:08:57;96424.34;;;35.06;26.46
79663;BME280;69130;48.724;8.982;2023-05-07T10:11:22;96424.47;;;35.74;24.54
79663;BME280;69130;48.724;8.982;2023-05-07T10:13:48;96417.34;;;35.20;24.72
79663;BME280;69130;48.724;8.982;2023-05-07T10:16:14;96407.88;;;33.70;25.49
79663;BME280;69130;48.724;8.982;2023-05-07T10:18:42;96411.50;;;33.59;25.43
79663;BME280;69130;48.724;8.982;2023-05-07T10:21:14;96408.03;;;33.80;26.60
79663;BME280;69130;48.724;8.982;2023-05-07T10:23:44;96406.69;;;33.49;26.11
79663;BME280;69130;48.724;8.982;2023-05-07T10:26:11;96405.13;;;33.70;27.10
79663;BME280;69130;48.724;8.982;2023-05-07T10:28:40;96405.59;;;32.37;27.71
79663;BME280;69130;48.724;8.982;2023-05-07T10:31:31;96401.41;;;33.14;27.36
79663;BME280;69130;48.724;8.982;2023-05-07T10:33:59;96404.94;;;34.09;26.38
79663;BME280;69130;48.724;8.982;2023-05-07T10:36:26;96399.78;;;33.80;26.90
79663;BME280;69130;48.724;8.982;2023-05-07T10:38:54;96393.63;;;33.73;27.02
79663;BME280;69130;48.724;8.982;2023-05-07T10:41:20;96393.84;;;33.21;26.64
79663;BME280;69130;48.724;8.982;2023-05-07T10:43:46;96390.91;;;33.11;28.29
79663;BME280;69130;48.724;8.982;2023-05-07T10:46:15;96388.91;;;33.68;26.37
79663;BME280;69130;48.724;8.982;2023-05-07T10:51:26;96393.19;;;33.97;25.27
79663;BME280;69130;48.724;8.982;2023-05-07T10:56:39;96393.63;;;34.27;24.85
79663;BME280;69130;48.724;8.982;2023-05-07T11:02:11;96383.13;;;31.02;29.85
79663;BME280;69130;48.724;8.982;2023-05-07T11:04:39;96381.66;;;29.61;33.23
79663;BME280;69130;48.724;8.982;2023-05-07T11:12:16;96378.28;;;27.83;35.48
79663;BME280;69130;48.724;8.982;2023-05-07T11:17:10;96381.00;;;26.72;39.04
79663;BME280;69130;48.724;8.982;2023-05-07T11:19:53;96375.50;;;25.92;42.90
79663;BME280;69130;48.724;8.982;2023-05-07T11:25:00;96377.13;;;25.25;42.83
79663;BME280;69130;48.724;8.982;2023-05-07T11:27:26;96376.66;;;24.72;44.85
79663;BME280;69130;48.724;8.982;2023-05-07T11:29:52;96376.91;;;24.56;45.17
79663;BME280;69130;48.724;8.982;2023-05-07T11:34:53;96368.88;;;23.48;47.67
79663;BME280;69130;48.724;8.982;2023-05-07T11:37:19;96376.75;;;23.20;48.86
79663;BME280;69130;48.724;8.982;2023-05-07T11:39:44;96378.19;;;22.48;49.78
79663;BME280;69130;48.724;8.982;2023-05-07T11:44:55;96385.19;;;21.65;56.27
79663;BME280;69130;48.724;8.982;2023-05-07T11:47:20;96393.91;;;21.28;58.40
79663;BME280;69130;48.724;8.982;2023-05-07T11:49:53;96394.09;;;20.95;59.39
79663;BME280;69130;48.724;8.982;2023-05-07T11:52:20;96407.22;;;20.73;61.52
79663;BME280;69130;48.724;8.982;2023-05-07T11:54:55;96416.44;;;20.47;63.91
79663;BME280;69130;48.724;8.982;2023-05-07T11:57:24;96427.53;;;19.94;68.22
79663;BME280;69130;48.724;8.982;2023-05-07T11:59:57;96439.38;;;18.98;70.43
79663;BME280;69130;48.724;8.982;2023-05-07T12:02:23;96440.78;;;18.32;68.59
79663;BME280;69130;48.724;8.982;2023-05-07T12:04:53;96446.88;;;17.53;70.94
79663;BME280;69130;48.724;8.982;2023-05-07T12:07:19;96450.41;;;16.88;72.13
79663;BME280;69130;48.724;8.982;2023-05-07T12:09:45;96459.00;;;16.43;73.22
79663;BME280;69130;48.724;8.982;2023-05-07T12:12:11;96451.66;;;15.98;76.48
79663;BME280;69130;48.724;8.982;2023-05-07T12:14:41;96445.25;;;15.70;82.05
79663;BME280;69130;48.724;8.982;2023-05-07T12:17:11;96440.00;;;15.59;80.02
79663;BME280;69130;48.724;8.982;2023-05-07T12:19:37;96432.06;;;15.68;78.99
79663;BME280;69130;48.724;8.982;2023-05-07T12:22:04;96434.59;;;15.80;80.69
79663;BME280;69130;48.724;8.982;2023-05-07T12:24:56;96422.84;;;15.92;80.17
79663;BME280;69130;48.724;8.982;2023-05-07T12:27:22;96427.63;;;15.88;79.45
79663;BME280;69130;48.724;8.982;2023-05-07T12:29:48;96428.97;;;15.83;82.04
79663;BME280;69130;48.724;8.982;2023-05-07T12:32:18;96435.88;;;15.85;80.25
79663;BME280;69130;48.724;8.982;2023-05-07T12:34:45;96444.19;;;15.92;80.98
79663;BME280;69130;48.724;8.982;2023-05-07T12:37:11;96438.72;;;15.93;82.73
79663;BME280;69130;48.724;8.982;2023-05-07T12:39:38;96428.56;;;15.87;83.93
79663;BME280;69130;48.724;8.982;2023-05-07T12:42:03;96444.44;;;15.79;84.06
79663;BME280;69130;48.724;8.982;2023-05-07T12:44:32;96436.56;;;15.78;83.80
79663;BME280;69130;48.724;8.982;2023-05-07T12:47:01;96443.63;;;15.88;82.85
79663;BME280;69130;48.724;8.982;2023-05-07T12:49:27;96469.88;;;15.93;84.05
79663;BME280;69130;48.724;8.982;2023-05-07T12:51:53;96470.84;;;15.82;79.47
79663;BME280;69130;48.724;8.982;2023-05-07T12:54:32;96472.72;;;15.61;80.29
79663;BME280;69130;48.724;8.982;2023-05-07T12:57:06;96473.59;;;15.71;81.19
79663;BME280;69130;48.724;8.982;2023-05-07T12:59:33;96484.41;;;15.69;81.68
79663;BME280;69130;48.724;8.982;2023-05-07T13:01:58;96478.66;;;15.64;80.03
79663;BME280;69130;48.724;8.982;2023-05-07T13:04:24;96482.06;;;15.76;82.79
79663;BME280;69130;48.724;8.982;2023-05-07T13:06:50;96483.03;;;15.75;82.59
79663;BME280;69130;48.724;8.982;2023-05-07T13:09:15;96487.25;;;15.78;83.10
79663;BME280;69130;48.724;8.982;2023-05-07T13:11:40;96488.66;;;15.72;84.28
79663;BME280;69130;48.724;8.982;2023-05-07T13:14:06;96485.13;;;15.71;82.16
79663;BME280;69130;48.724;8.982;2023-05-07T13:16:31;96489.38;;;15.74;82.99
79663;BME280;69130;48.724;8.982;2023-05-07T13:18:56;96497.19;;;15.66;83.55
79663;BME280;69130;48.724;8.982;2023-05-07T13:21:22;96512.09;;;15.68;83.61